sensor_id;sensor_type;location;lat;lon;timestamp;P1;durP1;ratioP1;P2;durP2;ratioP2
50681;SDS011;36779;52.168;20.878;2023-06-10T00:02:25;13.60;;;7.50;;
50681;SDS011;36779;52.168;20.878;2023-06-10T00:04:58;11.80;;;7.70;;
50681;SDS011;36779;52.168;20.878;2023-06-10T00:07:30;10.80;;;7.30;;
50681;SDS011;36779;52.168;20.878;2023-06-10T00:10:07;8.70;;;6.60;;
50681;SDS011;36779;52.168;20.878;2023-06-10T00:12:43;9.50;;;6.90;;
50681;SDS011;36779;52.168;20.878;2023-06-10T00:15:18;8.70;;;7.20;;
50681;SDS011;36779;52.168;20.878;2023-06-10T00:17:51;11.00;;;7.20;;
50681;SDS011;36779;52.168;20.878;2023-06-10T00:20:25;9.50;;;7.40;;
50681;SDS011;36779;52.168;20.878;2023-06-10T00:23:00;8.60;;;6.60;;
50681;SDS011;36779;52.168;20.878;2023-06-10T00:25:36;8.70;;;6.50;;
50681;SDS011;36779;52.168;20.878;2023-06-10T00:28:08;8.50;;;6.50;;
50681;SDS011;36779;52.168;20.878;2023-06-10T00:30:46;12.50;;;6.70;;
50681;SDS011;36779;52.168;20.878;2023-06-10T00:33:19;13.00;;;7.80;;
50681;SDS011;36779;52.168;20.878;2023-06-10T00:35:51;9.10;;;7.10;;
50681;SDS011;36779;52.168;20.878;2023-06-10T00:38:24;10.80;;;7.50;;
50681;SDS011;36779;52.168;20.878;2023-06-10T00:40:58;11.30;;;7.30;;
50681;SDS011;36779;52.168;20.878;2023-06-10T00:43:31;9.90;;;7.00;;
50681;SDS011;36779;52.168;20.878;2023-06-10T00:46:03;11.10;;;6.70;;
50681;SDS011;36779;52.168;20.878;2023-06-10T00:48:36;11.30;;;7.10;;
50681;SDS011;36779;52.168;20.878;2023-06-10T00:51:09;9.50;;;6.10;;
50681;SDS011;36779;52.168;20.878;2023-06-10T00:53:46;7.00;;;5.40;;
50681;SDS011;36779;52.168;20.878;2023-06-10T00:56:21;10.10;;;5.90;;
50681;SDS011;36779;52.168;20.878;2023-06-10T00:58:54;7.60;;;5.60;;
50681;SDS011;36779;52.168;20.878;2023-06-10T01:01:30;7.80;;;5.30;;
50681;SDS011;36779;52.168;20.878;2023-06-10T01:04:04;7.20;;;4.90;;
50681;SDS011;36779;52.168;20.878;2023-06-10T01:06:47;6.80;;;5.10;;
50681;SDS011;36779;52.168;20.878;2023-06-10T01:09:30;7.60;;;4.40;;
50681;SDS011;36779;52.168;20.878;2023-06-10T01:12:26;9.30;;;4.60;;
50681;SDS011;36779;52.168;20.878;2023-06-10T01:15:05;9.50;;;4.70;;
50681;SDS011;36779;52.168;20.878;2023-06-10T01:20:29;7.80;;;4.60;;
50681;SDS011;36779;52.168;20.878;2023-06-10T01:23:04;7.50;;;4.70;;
50681;SDS011;36779;52.168;20.878;2023-06-10T01:25:38;11.80;;;4.60;;
50681;SDS011;36779;52.168;20.878;2023-06-10T01:28:18;8.70;;;4.40;;
50681;SDS011;36779;52.168;20.878;2023-06-10T01:30:58;12.20;;;4.00;;
50681;SDS011;36779;52.168;20.878;2023-06-10T01:33:39;8.70;;;4.20;;
50681;SDS011;36779;52.168;20.878;2023-06-10T01:36:17;7.30;;;3.50;;
50681;SDS011;36779;52.168;20.878;2023-06-10T01:38:59;7.10;;;3.50;;
50681;SDS011;36779;52.168;20.878;2023-06-10T01:41:36;6.80;;;3.90;;
50681;SDS011;36779;52.168;20.878;2023-06-10T01:44:17;6.50;;;3.60;;
50681;SDS011;36779;52.168;20.878;2023-06-10T01:46:50;7.10;;;4.10;;
50681;SDS011;36779;52.168;20.878;2023-06-10T01:49:22;8.70;;;3.60;;
50681;SDS011;36779;52.168;20.878;2023-06-10T01:51:55;8.20;;;3.80;;
50681;SDS011;36779;52.168;20.878;2023-06-10T01:54:27;7.90;;;4.00;;
50681;SDS011;36779;52.168;20.878;2023-06-10T01:57:00;7.60;;;3.40;;
50681;SDS011;36779;52.168;20.878;2023-06-10T01:59:34;6.50;;;3.30;;
50681;SDS011;36779;52.168;20.878;2023-06-10T02:02:07;5.80;;;3.10;;
50681;SDS011;36779;52.168;20.878;2023-06-10T02:04:50;6.30;;;2.80;;
50681;SDS011;36779;52.168;20.878;2023-06-10T02:07:24;8.60;;;3.50;;
50681;SDS011;36779;52.168;20.878;2023-06-10T02:09:57;5.60;;;3.30;;
50681;SDS011;36779;52.168;20.878;2023-06-10T02:12:31;8.30;;;3.50;;
50681;SDS011;36779;52.168;20.878;2023-06-10T02:15:04;6.40;;;3.30;;
50681;SDS011;36779;52.168;20.878;2023-06-10T02:17:41;7.20;;;3.60;;
50681;SDS011;36779;52.168;20.878;2023-06-10T02:20:17;7.90;;;3.10;;
50681;SDS011;36779;52.168;20.878;2023-06-10T02:22:50;7.10;;;3.30;;
50681;SDS011;36779;52.168;20.878;2023-06-10T02:25:34;7.40;;;3.30;;
50681;SDS011;36779;52.168;20.878;2023-06-10T02:28:06;6.60;;;2.80;;
50681;SDS011;36779;52.168;20.878;2023-06-10T02:30:50;8.10;;;3.20;;
50681;SDS011;36779;52.168;20.878;2023-06-10T02:33:25;9.60;;;2.80;;
50681;SDS011;36779;52.168;20.878;2023-06-10T02:35:57;7.60;;;3.10;;
50681;SDS011;36779;52.168;20.878;2023-06-10T02:38:29;5.00;;;3.20;;
50681;SDS011;36779;52.168;20.878;2023-06-10T02:41:04;9.10;;;3.40;;
50681;SDS011;36779;52.168;20.878;2023-06-10T02:43:37;5.80;;;3.10;;
50681;SDS011;36779;52.168;20.878;2023-06-10T02:48:46;6.40;;;2.60;;
50681;SDS011;36779;52.168;20.878;2023-06-10T02:51:25;5.60;;;3.20;;
50681;SDS011;36779;52.168;20.878;2023-06-10T02:54:01;5.20;;;2.70;;
50681;SDS011;36779;52.168;20.878;2023-06-10T02:56:34;6.50;;;3.10;;
50681;SDS011;36779;52.168;20.878;2023-06-10T02:59:17;5.50;;;2.70;;
50681;SDS011;36779;52.168;20.878;2023-06-10T03:01:56;4.30;;;2.10;;
50681;SDS011;36779;52.168;20.878;2023-06-10T03:07:14;6.20;;;3.00;;
50681;SDS011;36779;52.168;20.878;2023-06-10T03:09:49;7.20;;;2.90;;
50681;SDS011;36779;52.168;20.878;2023-06-10T03:12:27;8.50;;;2.90;;
50681;SDS011;36779;52.168;20.878;2023-06-10T03:14:59;6.50;;;3.40;;
50681;SDS011;36779;52.168;20.878;2023-06-10T03:17:33;5.60;;;2.90;;
50681;SDS011;36779;52.168;20.878;2023-06-10T03:20:08;11.70;;;3.20;;
50681;SDS011;36779;52.168;20.878;2023-06-10T03:22:42;8.90;;;3.10;;
50681;SDS011;36779;52.168;20.878;2023-06-10T03:25:14;3.90;;;2.60;;
50681;SDS011;36779;52.168;20.878;2023-06-10T03:27:49;6.50;;;3.20;;
50681;SDS011;36779;52.168;20.878;2023-06-10T03:30:28;4.90;;;3.10;;
50681;SDS011;36779;52.168;20.878;2023-06-10T03:33:01;8.70;;;3.70;;
50681;SDS011;36779;52.168;20.878;2023-06-10T03:35:33;6.20;;;3.20;;
50681;SDS011;36779;52.168;20.878;2023-06-10T03:38:06;6.60;;;3.20;;
50681;SDS011;36779;52.168;20.878;2023-06-10T03:40:42;7.30;;;3.00;;
50681;SDS011;36779;52.168;20.878;2023-06-10T03:43:15;9.90;;;3.60;;
50681;SDS011;36779;52.168;20.878;2023-06-10T03:45:50;4.30;;;2.50;;
50681;SDS011;36779;52.168;20.878;2023-06-10T03:49:14;4.80;;;2.90;;
50681;SDS011;36779;52.168;20.878;2023-06-10T03:51:47;4.40;;;2.80;;
50681;SDS011;36779;52.168;20.878;2023-06-10T03:54:25;7.60;;;2.70;;
50681;SDS011;36779;52.168;20.878;2023-06-10T03:57:01;6.80;;;3.30;;
50681;SDS011;36779;52.168;20.878;2023-06-10T03:59:35;7.40;;;3.20;;
50681;SDS011;36779;52.168;20.878;2023-06-10T04:02:07;5.60;;;3.20;;
50681;SDS011;36779;52.168;20.878;2023-06-10T04:04:45;5.20;;;3.10;;
50681;SDS011;36779;52.168;20.878;2023-06-10T04:07:17;6.50;;;2.90;;
50681;SDS011;36779;52.168;20.878;2023-06-10T04:09:55;6.00;;;2.80;;
50681;SDS011;36779;52.168;20.878;2023-06-10T04:12:30;8.10;;;3.30;;
50681;SDS011;36779;52.168;20.878;2023-06-10T04:15:03;6.40;;;3.60;;
50681;SDS011;36779;52.168;20.878;2023-06-10T04:20:16;7.30;;;3.20;;
50681;SDS011;36779;52.168;20.878;2023-06-10T04:22:49;8.50;;;3.90;;
50681;SDS011;36779;52.168;20.878;2023-06-10T04:25:36;6.10;;;3.80;;
50681;SDS011;36779;52.168;20.878;2023-06-10T04:28:08;10.10;;;3.30;;
50681;SDS011;36779;52.168;20.878;2023-06-10T04:30:43;6.70;;;3.40;;
50681;SDS011;36779;52.168;20.878;2023-06-10T04:33:16;9.40;;;3.80;;
50681;SDS011;36779;52.168;20.878;2023-06-10T04:35:49;9.00;;;3.40;;
50681;SDS011;36779;52.168;20.878;2023-06-10T04:38:26;4.20;;;2.50;;
50681;SDS011;36779;52.168;20.878;2023-06-10T04:41:01;6.70;;;3.30;;
50681;SDS011;36779;52.168;20.878;2023-06-10T04:43:36;5.80;;;3.40;;
50681;SDS011;36779;52.168;20.878;2023-06-10T04:46:08;6.80;;;4.00;;
50681;SDS011;36779;52.168;20.878;2023-06-10T04:48:42;9.80;;;4.20;;
50681;SDS011;36779;52.168;20.878;2023-06-10T04:51:16;7.90;;;4.60;;
50681;SDS011;36779;52.168;20.878;2023-06-10T04:53:48;4.40;;;4.00;;
50681;SDS011;36779;52.168;20.878;2023-06-10T04:56:32;7.60;;;4.10;;
50681;SDS011;36779;52.168;20.878;2023-06-10T04:59:08;9.40;;;4.30;;
50681;SDS011;36779;52.168;20.878;2023-06-10T05:01:42;7.20;;;4.20;;
50681;SDS011;36779;52.168;20.878;2023-06-10T05:04:15;7.10;;;4.20;;
50681;SDS011;36779;52.168;20.878;2023-06-10T05:06:47;9.50;;;3.90;;
50681;SDS011;36779;52.168;20.878;2023-06-10T05:09:20;6.00;;;3.90;;
50681;SDS011;36779;52.168;20.878;2023-06-10T05:11:55;5.70;;;4.20;;
50681;SDS011;36779;52.168;20.878;2023-06-10T05:14:33;5.40;;;3.90;;
50681;SDS011;36779;52.168;20.878;2023-06-10T05:17:06;8.50;;;3.90;;
50681;SDS011;36779;52.168;20.878;2023-06-10T05:19:39;7.60;;;3.80;;
50681;SDS011;36779;52.168;20.878;2023-06-10T05:22:16;8.00;;;4.00;;
50681;SDS011;36779;52.168;20.878;2023-06-10T05:24:49;4.80;;;3.80;;
50681;SDS011;36779;52.168;20.878;2023-06-10T05:27:22;7.90;;;3.90;;
50681;SDS011;36779;52.168;20.878;2023-06-10T05:29:59;5.50;;;3.70;;
50681;SDS011;36779;52.168;20.878;2023-06-10T05:32:36;6.70;;;4.10;;
50681;SDS011;36779;52.168;20.878;2023-06-10T05:35:09;9.30;;;3.90;;
50681;SDS011;36779;52.168;20.878;2023-06-10T05:37:44;8.30;;;4.00;;
50681;SDS011;36779;52.168;20.878;2023-06-10T05:40:16;6.00;;;3.90;;
50681;SDS011;36779;52.168;20.878;2023-06-10T05:42:49;6.00;;;3.70;;
50681;SDS011;36779;52.168;20.878;2023-06-10T05:45:21;7.00;;;3.60;;
50681;SDS011;36779;52.168;20.878;2023-06-10T05:48:00;9.50;;;4.20;;
50681;SDS011;36779;52.168;20.878;2023-06-10T05:50:33;6.10;;;4.10;;
50681;SDS011;36779;52.168;20.878;2023-06-10T05:53:08;6.90;;;4.20;;
50681;SDS011;36779;52.168;20.878;2023-06-10T05:55:45;6.50;;;3.60;;
50681;SDS011;36779;52.168;20.878;2023-06-10T05:58:18;5.70;;;3.60;;
50681;SDS011;36779;52.168;20.878;2023-06-10T06:00:50;4.20;;;3.80;;
50681;SDS011;36779;52.168;20.878;2023-06-10T06:03:23;5.50;;;3.90;;
50681;SDS011;36779;52.168;20.878;2023-06-10T06:05:58;5.90;;;3.80;;
50681;SDS011;36779;52.168;20.878;2023-06-10T06:08:31;6.80;;;4.30;;
50681;SDS011;36779;52.168;20.878;2023-06-10T06:11:04;6.20;;;3.70;;
50681;SDS011;36779;52.168;20.878;2023-06-10T06:13:40;6.00;;;4.30;;
50681;SDS011;36779;52.168;20.878;2023-06-10T06:16:14;5.80;;;3.50;;
50681;SDS011;36779;52.168;20.878;2023-06-10T06:18:48;7.20;;;4.00;;
50681;SDS011;36779;52.168;20.878;2023-06-10T06:21:20;6.80;;;4.00;;
50681;SDS011;36779;52.168;20.878;2023-06-10T06:23:53;5.50;;;4.50;;
50681;SDS011;36779;52.168;20.878;2023-06-10T06:26:28;7.20;;;4.40;;
50681;SDS011;36779;52.168;20.878;2023-06-10T06:29:17;7.50;;;4.20;;
50681;SDS011;36779;52.168;20.878;2023-06-10T06:31:57;7.00;;;4.30;;
50681;SDS011;36779;52.168;20.878;2023-06-10T06:34:30;6.10;;;4.20;;
50681;SDS011;36779;52.168;20.878;2023-06-10T06:37:05;7.40;;;4.60;;
50681;SDS011;36779;52.168;20.878;2023-06-10T06:39:38;5.10;;;4.20;;
50681;SDS011;36779;52.168;20.878;2023-06-10T06:42:19;8.00;;;4.80;;
50681;SDS011;36779;52.168;20.878;2023-06-10T06:45:18;9.50;;;4.70;;
50681;SDS011;36779;52.168;20.878;2023-06-10T06:47:50;12.70;;;4.90;;
50681;SDS011;36779;52.168;20.878;2023-06-10T06:50:29;9.70;;;4.90;;
50681;SDS011;36779;52.168;20.878;2023-06-10T06:53:03;9.60;;;4.60;;
50681;SDS011;36779;52.168;20.878;2023-06-10T06:55:35;9.70;;;4.70;;
50681;SDS011;36779;52.168;20.878;2023-06-10T06:58:10;8.60;;;4.60;;
50681;SDS011;36779;52.168;20.878;2023-06-10T07:00:44;6.20;;;4.30;;
50681;SDS011;36779;52.168;20.878;2023-06-10T07:03:20;5.70;;;4.10;;
50681;SDS011;36779;52.168;20.878;2023-06-10T07:05:52;7.50;;;4.70;;
50681;SDS011;36779;52.168;20.878;2023-06-10T07:08:27;7.40;;;4.80;;
50681;SDS011;36779;52.168;20.878;2023-06-10T07:11:03;10.00;;;4.80;;
50681;SDS011;36779;52.168;20.878;2023-06-10T07:13:36;9.10;;;4.60;;
50681;SDS011;36779;52.168;20.878;2023-06-10T07:16:12;11.60;;;5.10;;
50681;SDS011;36779;52.168;20.878;2023-06-10T07:18:47;8.10;;;4.90;;
50681;SDS011;36779;52.168;20.878;2023-06-10T07:21:23;7.40;;;4.60;;
50681;SDS011;36779;52.168;20.878;2023-06-10T07:23:58;8.50;;;4.60;;
50681;SDS011;36779;52.168;20.878;2023-06-10T07:26:31;10.10;;;4.80;;
50681;SDS011;36779;52.168;20.878;2023-06-10T07:29:05;7.60;;;4.30;;
50681;SDS011;36779;52.168;20.878;2023-06-10T07:31:45;7.30;;;5.00;;
50681;SDS011;36779;52.168;20.878;2023-06-10T07:34:19;7.00;;;4.60;;
50681;SDS011;36779;52.168;20.878;2023-06-10T07:36:52;8.30;;;4.70;;
50681;SDS011;36779;52.168;20.878;2023-06-10T07:39:27;8.00;;;5.10;;
50681;SDS011;36779;52.168;20.878;2023-06-10T07:41:59;7.50;;;4.00;;
50681;SDS011;36779;52.168;20.878;2023-06-10T07:44:32;11.60;;;5.00;;
50681;SDS011;36779;52.168;20.878;2023-06-10T07:47:05;10.50;;;4.90;;
50681;SDS011;36779;52.168;20.878;2023-06-10T07:49:38;8.10;;;4.80;;
50681;SDS011;36779;52.168;20.878;2023-06-10T07:52:13;6.80;;;4.50;;
50681;SDS011;36779;52.168;20.878;2023-06-10T07:54:47;7.60;;;4.50;;
50681;SDS011;36779;52.168;20.878;2023-06-10T07:57:21;7.20;;;4.50;;
50681;SDS011;36779;52.168;20.878;2023-06-10T07:59:53;6.70;;;4.40;;
50681;SDS011;36779;52.168;20.878;2023-06-10T08:02:27;8.20;;;4.30;;
50681;SDS011;36779;52.168;20.878;2023-06-10T08:05:07;7.60;;;4.70;;
50681;SDS011;36779;52.168;20.878;2023-06-10T08:07:41;6.40;;;4.10;;
50681;SDS011;36779;52.168;20.878;2023-06-10T08:10:14;9.80;;;5.00;;
50681;SDS011;36779;52.168;20.878;2023-06-10T08:12:46;6.70;;;4.40;;
50681;SDS011;36779;52.168;20.878;2023-06-10T08:15:20;9.70;;;4.70;;
50681;SDS011;36779;52.168;20.878;2023-06-10T08:17:55;9.50;;;4.80;;
50681;SDS011;36779;52.168;20.878;2023-06-10T08:20:29;6.60;;;3.90;;
50681;SDS011;36779;52.168;20.878;2023-06-10T08:23:04;7.50;;;4.30;;
50681;SDS011;36779;52.168;20.878;2023-06-10T08:25:36;6.60;;;4.30;;
50681;SDS011;36779;52.168;20.878;2023-06-10T08:28:11;7.30;;;4.20;;
50681;SDS011;36779;52.168;20.878;2023-06-10T08:30:46;6.70;;;4.50;;
50681;SDS011;36779;52.168;20.878;2023-06-10T08:33:18;9.40;;;4.30;;
50681;SDS011;36779;52.168;20.878;2023-06-10T08:35:50;8.60;;;4.80;;
50681;SDS011;36779;52.168;20.878;2023-06-10T08:38:27;6.30;;;4.30;;
50681;SDS011;36779;52.168;20.878;2023-06-10T08:41:03;7.90;;;4.70;;
50681;SDS011;36779;52.168;20.878;2023-06-10T08:43:39;7.90;;;4.70;;
50681;SDS011;36779;52.168;20.878;2023-06-10T08:46:19;5.70;;;4.40;;
50681;SDS011;36779;52.168;20.878;2023-06-10T08:48:52;8.90;;;4.40;;
50681;SDS011;36779;52.168;20.878;2023-06-10T08:51:30;5.90;;;4.10;;
50681;SDS011;36779;52.168;20.878;2023-06-10T08:54:05;6.90;;;4.20;;
50681;SDS011;36779;52.168;20.878;2023-06-10T08:56:49;6.00;;;3.80;;
50681;SDS011;36779;52.168;20.878;2023-06-10T08:59:23;7.10;;;4.70;;
50681;SDS011;36779;52.168;20.878;2023-06-10T09:01:56;11.50;;;4.40;;
50681;SDS011;36779;52.168;20.878;2023-06-10T09:04:34;8.00;;;4.90;;
50681;SDS011;36779;52.168;20.878;2023-06-10T09:07:07;7.10;;;4.20;;
50681;SDS011;36779;52.168;20.878;2023-06-10T09:09:49;7.90;;;4.60;;
50681;SDS011;36779;52.168;20.878;2023-06-10T09:12:24;7.30;;;4.50;;
50681;SDS011;36779;52.168;20.878;2023-06-10T09:14:56;8.90;;;4.50;;
50681;SDS011;36779;52.168;20.878;2023-06-10T09:17:31;7.30;;;4.30;;
50681;SDS011;36779;52.168;20.878;2023-06-10T09:20:07;8.60;;;4.20;;
50681;SDS011;36779;52.168;20.878;2023-06-10T09:22:41;7.20;;;4.10;;
50681;SDS011;36779;52.168;20.878;2023-06-10T09:25:15;9.10;;;4.60;;
50681;SDS011;36779;52.168;20.878;2023-06-10T09:27:51;6.70;;;4.60;;
50681;SDS011;36779;52.168;20.878;2023-06-10T09:30:28;8.90;;;4.40;;
50681;SDS011;36779;52.168;20.878;2023-06-10T09:33:03;6.40;;;4.80;;
50681;SDS011;36779;52.168;20.878;2023-06-10T09:35:48;5.70;;;4.50;;
50681;SDS011;36779;52.168;20.878;2023-06-10T09:38:21;10.90;;;4.70;;
50681;SDS011;36779;52.168;20.878;2023-06-10T09:40:54;8.40;;;5.10;;
50681;SDS011;36779;52.168;20.878;2023-06-10T09:43:37;11.70;;;4.80;;
50681;SDS011;36779;52.168;20.878;2023-06-10T09:46:15;7.50;;;4.90;;
50681;SDS011;36779;52.168;20.878;2023-06-10T09:48:51;12.90;;;4.90;;
50681;SDS011;36779;52.168;20.878;2023-06-10T09:51:31;8.70;;;4.80;;
50681;SDS011;36779;52.168;20.878;2023-06-10T09:54:04;9.70;;;4.60;;
50681;SDS011;36779;52.168;20.878;2023-06-10T09:56:38;9.20;;;4.80;;
50681;SDS011;36779;52.168;20.878;2023-06-10T09:59:29;8.70;;;4.40;;
50681;SDS011;36779;52.168;20.878;2023-06-10T10:02:05;5.10;;;4.20;;
50681;SDS011;36779;52.168;20.878;2023-06-10T10:04:53;7.20;;;4.40;;
50681;SDS011;36779;52.168;20.878;2023-06-10T10:07:36;6.60;;;4.70;;
50681;SDS011;36779;52.168;20.878;2023-06-10T10:10:15;8.00;;;4.30;;
50681;SDS011;36779;52.168;20.878;2023-06-10T10:12:50;9.60;;;4.00;;
50681;SDS011;36779;52.168;20.878;2023-06-10T10:15:41;6.80;;;4.20;;
50681;SDS011;36779;52.168;20.878;2023-06-10T10:18:17;8.70;;;4.10;;
50681;SDS011;36779;52.168;20.878;2023-06-10T10:20:59;7.00;;;3.80;;
50681;SDS011;36779;52.168;20.878;2023-06-10T10:23:50;7.00;;;3.50;;
50681;SDS011;36779;52.168;20.878;2023-06-10T10:26:31;6.60;;;3.80;;
50681;SDS011;36779;52.168;20.878;2023-06-10T10:29:11;4.50;;;3.70;;
50681;SDS011;36779;52.168;20.878;2023-06-10T10:31:56;7.60;;;3.50;;
50681;SDS011;36779;52.168;20.878;2023-06-10T10:34:35;3.70;;;3.30;;
50681;SDS011;36779;52.168;20.878;2023-06-10T10:37:21;6.10;;;3.70;;
50681;SDS011;36779;52.168;20.878;2023-06-10T10:39:56;6.80;;;3.40;;
50681;SDS011;36779;52.168;20.878;2023-06-10T10:42:31;3.60;;;3.10;;
50681;SDS011;36779;52.168;20.878;2023-06-10T10:45:09;7.00;;;3.60;;
50681;SDS011;36779;52.168;20.878;2023-06-10T10:47:45;5.00;;;3.20;;
50681;SDS011;36779;52.168;20.878;2023-06-10T10:50:23;6.30;;;3.50;;
50681;SDS011;36779;52.168;20.878;2023-06-10T10:53:02;4.90;;;2.90;;
50681;SDS011;36779;52.168;20.878;2023-06-10T10:55:43;6.80;;;3.50;;
50681;SDS011;36779;52.168;20.878;2023-06-10T10:58:30;6.80;;;2.90;;
50681;SDS011;36779;52.168;20.878;2023-06-10T11:01:12;7.10;;;3.10;;
50681;SDS011;36779;52.168;20.878;2023-06-10T11:03:47;5.70;;;3.20;;
50681;SDS011;36779;52.168;20.878;2023-06-10T11:06:21;5.30;;;3.20;;
50681;SDS011;36779;52.168;20.878;2023-06-10T11:08:54;6.10;;;3.40;;
50681;SDS011;36779;52.168;20.878;2023-06-10T11:11:34;4.10;;;3.50;;
50681;SDS011;36779;52.168;20.878;2023-06-10T11:14:27;7.60;;;3.40;;
50681;SDS011;36779;52.168;20.878;2023-06-10T11:17:01;7.00;;;3.40;;
50681;SDS011;36779;52.168;20.878;2023-06-10T11:19:56;5.50;;;3.60;;
50681;SDS011;36779;52.168;20.878;2023-06-10T11:22:31;7.80;;;3.70;;
50681;SDS011;36779;52.168;20.878;2023-06-10T11:25:39;5.50;;;3.50;;
50681;SDS011;36779;52.168;20.878;2023-06-10T11:28:19;5.20;;;3.90;;
50681;SDS011;36779;52.168;20.878;2023-06-10T11:30:54;3.70;;;3.20;;
50681;SDS011;36779;52.168;20.878;2023-06-10T11:33:33;3.70;;;3.20;;
50681;SDS011;36779;52.168;20.878;2023-06-10T11:36:16;5.40;;;3.30;;
50681;SDS011;36779;52.168;20.878;2023-06-10T11:38:53;4.60;;;3.60;;
50681;SDS011;36779;52.168;20.878;2023-06-10T11:41:30;5.60;;;3.80;;
50681;SDS011;36779;52.168;20.878;2023-06-10T11:44:07;8.60;;;3.60;;
50681;SDS011;36779;52.168;20.878;2023-06-10T11:46:45;7.80;;;4.00;;
50681;SDS011;36779;52.168;20.878;2023-06-10T11:49:20;13.40;;;5.00;;
50681;SDS011;36779;52.168;20.878;2023-06-10T11:51:59;9.90;;;4.90;;
50681;SDS011;36779;52.168;20.878;2023-06-10T11:54:35;6.80;;;3.70;;
50681;SDS011;36779;52.168;20.878;2023-06-10T11:57:13;9.30;;;4.50;;
50681;SDS011;36779;52.168;20.878;2023-06-10T11:59:47;5.30;;;3.60;;
50681;SDS011;36779;52.168;20.878;2023-06-10T12:02:20;4.40;;;3.50;;
50681;SDS011;36779;52.168;20.878;2023-06-10T12:05:10;3.90;;;3.00;;
50681;SDS011;36779;52.168;20.878;2023-06-10T12:07:47;5.80;;;3.30;;
50681;SDS011;36779;52.168;20.878;2023-06-10T12:10:19;4.50;;;3.40;;
50681;SDS011;36779;52.168;20.878;2023-06-10T12:13:00;5.60;;;3.60;;
50681;SDS011;36779;52.168;20.878;2023-06-10T12:15:32;7.60;;;4.00;;
50681;SDS011;36779;52.168;20.878;2023-06-10T12:18:07;7.10;;;3.90;;
50681;SDS011;36779;52.168;20.878;2023-06-10T12:20:46;7.70;;;4.20;;
50681;SDS011;36779;52.168;20.878;2023-06-10T12:23:20;7.00;;;3.70;;
50681;SDS011;36779;52.168;20.878;2023-06-10T12:25:58;7.20;;;5.80;;
50681;SDS011;36779;52.168;20.878;2023-06-10T12:28:32;9.40;;;7.10;;
50681;SDS011;36779;52.168;20.878;2023-06-10T12:31:08;8.30;;;4.70;;
50681;SDS011;36779;52.168;20.878;2023-06-10T12:33:42;8.70;;;6.20;;
50681;SDS011;36779;52.168;20.878;2023-06-10T12:36:17;9.80;;;5.40;;
50681;SDS011;36779;52.168;20.878;2023-06-10T12:38:50;5.10;;;4.10;;
50681;SDS011;36779;52.168;20.878;2023-06-10T12:41:24;5.60;;;3.90;;
50681;SDS011;36779;52.168;20.878;2023-06-10T12:46:39;4.30;;;3.90;;
50681;SDS011;36779;52.168;20.878;2023-06-10T12:49:20;7.30;;;3.80;;
50681;SDS011;36779;52.168;20.878;2023-06-10T12:51:53;7.30;;;3.70;;
50681;SDS011;36779;52.168;20.878;2023-06-10T12:54:25;5.00;;;4.00;;
50681;SDS011;36779;52.168;20.878;2023-06-10T12:56:57;4.80;;;4.40;;
50681;SDS011;36779;52.168;20.878;2023-06-10T12:59:30;4.90;;;4.30;;
50681;SDS011;36779;52.168;20.878;2023-06-10T13:02:03;6.10;;;4.40;;
50681;SDS011;36779;52.168;20.878;2023-06-10T13:04:44;6.30;;;3.90;;
50681;SDS011;36779;52.168;20.878;2023-06-10T13:07:18;5.00;;;4.40;;
50681;SDS011;36779;52.168;20.878;2023-06-10T13:09:52;7.50;;;4.10;;
50681;SDS011;36779;52.168;20.878;2023-06-10T13:12:24;7.40;;;4.50;;
50681;SDS011;36779;52.168;20.878;2023-06-10T13:15:16;6.90;;;4.60;;
50681;SDS011;36779;52.168;20.878;2023-06-10T13:17:49;5.40;;;4.30;;
50681;SDS011;36779;52.168;20.878;2023-06-10T13:20:21;6.60;;;4.70;;
50681;SDS011;36779;52.168;20.878;2023-06-10T13:22:55;6.70;;;4.90;;
50681;SDS011;36779;52.168;20.878;2023-06-10T13:25:31;6.40;;;5.10;;
50681;SDS011;36779;52.168;20.878;2023-06-10T13:28:04;6.80;;;4.80;;
50681;SDS011;36779;52.168;20.878;2023-06-10T13:30:39;6.30;;;4.40;;
50681;SDS011;36779;52.168;20.878;2023-06-10T13:33:14;5.30;;;4.80;;
50681;SDS011;36779;52.168;20.878;2023-06-10T13:35:52;7.10;;;4.70;;
50681;SDS011;36779;52.168;20.878;2023-06-10T13:38:24;8.00;;;4.50;;
50681;SDS011;36779;52.168;20.878;2023-06-10T13:40:57;4.60;;;4.10;;
50681;SDS011;36779;52.168;20.878;2023-06-10T13:43:33;7.30;;;4.50;;
50681;SDS011;36779;52.168;20.878;2023-06-10T13:46:06;9.10;;;4.50;;
50681;SDS011;36779;52.168;20.878;2023-06-10T13:48:41;5.80;;;4.80;;
50681;SDS011;36779;52.168;20.878;2023-06-10T13:51:15;10.10;;;4.80;;
50681;SDS011;36779;52.168;20.878;2023-06-10T13:53:47;5.70;;;4.70;;
50681;SDS011;36779;52.168;20.878;2023-06-10T13:56:23;4.90;;;4.30;;
50681;SDS011;36779;52.168;20.878;2023-06-10T13:58:56;4.90;;;4.40;;
50681;SDS011;36779;52.168;20.878;2023-06-10T14:07:04;4.70;;;4.20;;
50681;SDS011;36779;52.168;20.878;2023-06-10T14:09:39;5.50;;;4.10;;
50681;SDS011;36779;52.168;20.878;2023-06-10T14:12:15;5.00;;;4.50;;
50681;SDS011;36779;52.168;20.878;2023-06-10T14:14:47;5.60;;;4.40;;
50681;SDS011;36779;52.168;20.878;2023-06-10T14:17:30;6.00;;;4.70;;
50681;SDS011;36779;52.168;20.878;2023-06-10T14:20:08;6.40;;;4.40;;
50681;SDS011;36779;52.168;20.878;2023-06-10T14:22:44;5.10;;;4.50;;
50681;SDS011;36779;52.168;20.878;2023-06-10T14:25:17;7.70;;;4.50;;
50681;SDS011;36779;52.168;20.878;2023-06-10T14:27:49;6.80;;;5.30;;
50681;SDS011;36779;52.168;20.878;2023-06-10T14:30:26;8.90;;;5.00;;
50681;SDS011;36779;52.168;20.878;2023-06-10T14:33:03;6.10;;;4.90;;
50681;SDS011;36779;52.168;20.878;2023-06-10T14:35:36;7.60;;;4.90;;
50681;SDS011;36779;52.168;20.878;2023-06-10T14:38:08;7.40;;;4.70;;
50681;SDS011;36779;52.168;20.878;2023-06-10T14:40:51;5.10;;;4.60;;
50681;SDS011;36779;52.168;20.878;2023-06-10T14:43:27;7.60;;;4.80;;
50681;SDS011;36779;52.168;20.878;2023-06-10T14:46:00;11.30;;;4.60;;
50681;SDS011;36779;52.168;20.878;2023-06-10T14:48:33;5.40;;;4.40;;
50681;SDS011;36779;52.168;20.878;2023-06-10T14:51:08;6.10;;;4.70;;
50681;SDS011;36779;52.168;20.878;2023-06-10T14:53:45;7.50;;;4.50;;
50681;SDS011;36779;52.168;20.878;2023-06-10T14:56:17;8.40;;;4.80;;
50681;SDS011;36779;52.168;20.878;2023-06-10T14:58:50;5.90;;;4.40;;
50681;SDS011;36779;52.168;20.878;2023-06-10T15:01:23;6.10;;;4.60;;
50681;SDS011;36779;52.168;20.878;2023-06-10T15:04:17;8.60;;;4.70;;
50681;SDS011;36779;52.168;20.878;2023-06-10T15:06:56;7.10;;;4.90;;
50681;SDS011;36779;52.168;20.878;2023-06-10T15:09:36;4.80;;;4.40;;
50681;SDS011;36779;52.168;20.878;2023-06-10T15:12:18;5.30;;;4.80;;
50681;SDS011;36779;52.168;20.878;2023-06-10T15:14:53;7.90;;;4.90;;
50681;SDS011;36779;52.168;20.878;2023-06-10T15:17:30;10.60;;;4.70;;
50681;SDS011;36779;52.168;20.878;2023-06-10T15:20:03;7.20;;;4.60;;
50681;SDS011;36779;52.168;20.878;2023-06-10T15:22:37;9.10;;;4.70;;
50681;SDS011;36779;52.168;20.878;2023-06-10T15:25:10;4.90;;;4.40;;
50681;SDS011;36779;52.168;20.878;2023-06-10T15:27:59;6.10;;;4.60;;
50681;SDS011;36779;52.168;20.878;2023-06-10T15:30:35;7.80;;;4.30;;
50681;SDS011;36779;52.168;20.878;2023-06-10T15:33:07;7.10;;;4.20;;
50681;SDS011;36779;52.168;20.878;2023-06-10T15:35:43;4.90;;;4.10;;
50681;SDS011;36779;52.168;20.878;2023-06-10T15:38:16;7.30;;;4.50;;
50681;SDS011;36779;52.168;20.878;2023-06-10T15:40:48;5.50;;;4.90;;
50681;SDS011;36779;52.168;20.878;2023-06-10T15:43:24;7.00;;;4.60;;
50681;SDS011;36779;52.168;20.878;2023-06-10T15:45:59;5.90;;;5.10;;